createdAt,value
2023-02-10T00:01:35.776Z,20.55
2023-02-10T00:04:03.420Z,20.52
2023-02-10T00:06:30.630Z,21.35
2023-02-10T00:09:00.590Z,19.40
2023-02-10T00:11:47.709Z,20.15
2023-02-10T00:14:17.411Z,21.23
2023-02-10T00:16:44.629Z,20.35
2023-02-10T00:19:11.729Z,20.02
2023-02-10T00:21:38.615Z,17.95
2023-02-10T00:24:05.933Z,19.75
2023-02-10T00:26:32.879Z,20.90
2023-02-10T00:28:59.813Z,21.38
2023-02-10T00:31:26.826Z,26.95
2023-02-10T00:33:54.139Z,24.35
2023-02-10T00:36:22.673Z,19.90
2023-02-10T00:38:53.010Z,21.67
2023-02-10T00:41:22.794Z,20.48
2023-02-10T00:43:50.143Z,22.40
2023-02-10T00:46:20.307Z,21.95
2023-02-10T00:48:47.654Z,21.30
2023-02-10T00:51:16.129Z,24.48
2023-02-10T00:53:43.898Z,22.65
2023-02-10T00:56:12.799Z,22.67
2023-02-10T00:58:39.958Z,24.80
2023-02-10T01:01:07.365Z,22.90
2023-02-10T01:03:35.147Z,24.15
2023-02-10T01:06:03.469Z,22.55
2023-02-10T01:08:30.674Z,21.92
2023-02-10T01:11:07.443Z,24.88
2023-02-10T01:13:36.258Z,21.55
2023-02-10T01:16:14.817Z,24.42
2023-02-10T01:18:43.332Z,22.65
2023-02-10T01:21:20.172Z,23.02
2023-02-10T01:23:48.495Z,24.13
2023-02-10T01:26:16.139Z,21.88
2023-02-10T01:28:43.867Z,23.55
2023-02-10T01:31:20.453Z,25.13
2023-02-10T01:33:50.813Z,22.10
2023-02-10T01:36:20.617Z,22.45
2023-02-10T01:38:47.521Z,22.45
2023-02-10T01:41:17.517Z,22.90
2023-02-10T01:44:07.333Z,22.17
2023-02-10T01:46:36.365Z,23.73
2023-02-10T01:49:15.521Z,23.65
2023-02-10T01:51:55.830Z,22.80
2023-02-10T01:54:31.230Z,21.90
2023-02-10T01:56:59.327Z,23.55
2023-02-10T01:59:31.553Z,22.88
2023-02-10T02:02:00.768Z,24.35
2023-02-10T02:04:28.193Z,22.55
2023-02-10T02:06:55.209Z,24.58
2023-02-10T02:09:22.100Z,23.98
2023-02-10T02:12:10.893Z,23.92
2023-02-10T02:14:46.963Z,23.13
2023-02-10T02:17:25.581Z,24.20
2023-02-10T02:20:55.085Z,22.48
2023-02-10T02:23:50.985Z,24.52
2023-02-10T02:26:45.329Z,20.65
2023-02-10T02:29:40.396Z,21.83
2023-02-10T02:32:18.421Z,24.38
2023-02-10T02:35:03.382Z,21.88
2023-02-10T02:37:34.680Z,21.63
2023-02-10T02:40:03.104Z,23.13
2023-02-10T02:42:32.635Z,22.65
2023-02-10T02:45:12.890Z,21.25
2023-02-10T02:48:06.970Z,22.73
2023-02-10T02:50:43.673Z,22.33
2023-02-10T02:53:38.134Z,22.98
2023-02-10T02:56:16.886Z,22.77
2023-02-10T02:59:17.358Z,21.58
2023-02-10T03:02:00.225Z,22.17
2023-02-10T03:04:34.799Z,21.90
2023-02-10T03:07:03.286Z,23.75
2023-02-10T03:09:30.859Z,25.80
2023-02-10T03:11:58.460Z,25.58
2023-02-10T03:14:25.685Z,24.17
2023-02-10T03:16:52.742Z,24.60
2023-02-10T03:19:19.967Z,22.38
2023-02-10T03:21:48.183Z,25.33
2023-02-10T03:24:15.783Z,23.60
2023-02-10T03:26:42.780Z,26.35
2023-02-10T03:29:13.802Z,23.13
2023-02-10T03:31:40.864Z,23.00
2023-02-10T03:34:08.018Z,24.25
2023-02-10T03:36:35.384Z,22.60
2023-02-10T03:39:04.286Z,24.13
2023-02-10T03:41:31.417Z,21.65
2023-02-10T03:43:58.436Z,22.70
2023-02-10T03:46:25.369Z,22.98
2023-02-10T03:48:52.237Z,24.10
2023-02-10T03:51:19.237Z,22.75
2023-02-10T03:53:46.155Z,22.35
2023-02-10T03:56:13.040Z,23.73
2023-02-10T03:58:39.935Z,22.05
2023-02-10T04:01:14.040Z,22.35
2023-02-10T04:03:41.407Z,22.20
2023-02-10T04:06:09.251Z,22.83
2023-02-10T04:08:36.982Z,23.15
2023-02-10T04:11:04.892Z,20.63
2023-02-10T04:13:31.808Z,20.45
2023-02-10T04:16:08.688Z,22.45
2023-02-10T04:18:36.077Z,22.40
2023-02-10T04:21:04.868Z,20.17
2023-02-10T04:23:32.250Z,20.77
2023-02-10T04:26:00.155Z,20.88
2023-02-10T04:28:28.070Z,22.20
2023-02-10T04:30:58.493Z,21.50
2023-02-10T04:33:26.018Z,24.00
2023-02-10T04:35:54.863Z,22.77
2023-02-10T04:38:22.906Z,21.42
2023-02-10T04:40:49.770Z,20.38
2023-02-10T04:43:16.726Z,17.73
2023-02-10T04:45:43.795Z,19.73
2023-02-10T04:48:10.736Z,21.83
2023-02-10T04:50:38.866Z,20.25
2023-02-10T04:53:06.561Z,18.55
2023-02-10T04:55:34.837Z,20.45
2023-02-10T04:58:02.134Z,20.35
2023-02-10T05:00:29.529Z,22.02
2023-02-10T05:02:57.533Z,20.77
2023-02-10T05:05:26.255Z,19.95
2023-02-10T05:07:53.672Z,20.38
2023-02-10T05:10:21.250Z,20.08
2023-02-10T05:12:48.555Z,21.08
2023-02-10T05:15:16.417Z,20.60
2023-02-10T05:17:43.477Z,20.25
2023-02-10T05:20:11.407Z,19.85
2023-02-10T05:22:40.347Z,19.60
2023-02-10T05:25:08.806Z,20.30
2023-02-10T05:27:36.900Z,19.80
2023-02-10T05:30:07.336Z,19.45
2023-02-10T05:32:34.860Z,21.08
2023-02-10T05:35:01.721Z,20.17
2023-02-10T05:37:29.914Z,20.77
2023-02-10T05:39:57.083Z,22.17
2023-02-10T05:42:24.321Z,23.25
2023-02-10T05:44:51.238Z,22.48
2023-02-10T05:47:18.201Z,22.25
2023-02-10T05:49:45.097Z,21.88
2023-02-10T05:52:12.049Z,24.33
2023-02-10T05:54:41.014Z,24.05
2023-02-10T05:57:08.505Z,23.35
2023-02-10T05:59:35.584Z,21.58
2023-02-10T06:02:02.543Z,22.02
2023-02-10T06:04:29.534Z,23.25
2023-02-10T06:06:56.555Z,21.40
2023-02-10T06:09:24.097Z,22.85
2023-02-10T06:11:52.758Z,22.83
2023-02-10T06:14:20.344Z,25.67
2023-02-10T06:16:47.390Z,25.25
2023-02-10T06:19:14.363Z,24.65
2023-02-10T06:21:41.303Z,24.95
2023-02-10T06:24:08.418Z,25.60
2023-02-10T06:26:35.417Z,28.02
2023-02-10T06:29:02.428Z,27.08
2023-02-10T06:31:29.586Z,25.38
2023-02-10T06:33:56.507Z,26.95
2023-02-10T06:36:23.583Z,29.17
2023-02-10T06:38:50.464Z,28.60
2023-02-10T06:41:17.474Z,28.23
2023-02-10T06:43:44.417Z,25.77
2023-02-10T06:46:14.001Z,26.40
2023-02-10T06:48:40.928Z,25.17
2023-02-10T06:51:07.882Z,24.05
2023-02-10T06:53:34.840Z,25.45
2023-02-10T06:56:01.832Z,24.35
2023-02-10T06:58:28.834Z,26.20
2023-02-10T07:00:55.817Z,26.95
2023-02-10T07:03:22.753Z,25.02
2023-02-10T07:05:50.233Z,23.73
2023-02-10T07:08:17.807Z,24.50
2023-02-10T07:10:44.730Z,23.50
2023-02-10T07:13:11.629Z,23.10
2023-02-10T07:15:38.548Z,24.88
2023-02-10T07:18:05.725Z,23.60
2023-02-10T07:20:32.814Z,24.15
2023-02-10T07:22:59.769Z,24.15
2023-02-10T07:25:26.907Z,26.83
2023-02-10T07:27:53.830Z,24.55
2023-02-10T07:30:20.963Z,24.55
2023-02-10T07:32:47.788Z,25.17
2023-02-10T07:35:15.037Z,20.17
2023-02-10T07:37:41.986Z,22.25
2023-02-10T07:40:10.845Z,25.80
2023-02-10T07:42:39.050Z,24.42
2023-02-10T07:45:34.820Z,24.50
2023-02-10T07:48:01.777Z,24.60
2023-02-10T07:50:31.010Z,24.00
2023-02-10T07:52:59.367Z,23.63
2023-02-10T07:55:26.271Z,25.25
2023-02-10T07:57:53.676Z,24.48
2023-02-10T08:00:20.926Z,25.85
2023-02-10T08:02:47.871Z,24.65
2023-02-10T08:05:14.854Z,22.67
2023-02-10T08:07:41.931Z,26.02
2023-02-10T08:10:08.990Z,26.38
2023-02-10T08:12:36.010Z,24.38
2023-02-10T08:15:03.036Z,26.20
2023-02-10T08:17:30.157Z,23.45
2023-02-10T08:19:57.254Z,24.45
2023-02-10T08:22:24.433Z,20.90
2023-02-10T08:24:51.548Z,23.65
2023-02-10T08:27:18.666Z,25.08
2023-02-10T08:29:45.558Z,25.38
2023-02-10T08:32:13.872Z,25.52
2023-02-10T08:34:40.779Z,23.55
2023-02-10T08:37:07.777Z,23.33
2023-02-10T08:39:34.714Z,25.75
2023-02-10T08:42:01.788Z,24.13
2023-02-10T08:44:28.915Z,23.73
2023-02-10T08:46:56.036Z,26.00
2023-02-10T08:49:25.327Z,20.65
2023-02-10T08:51:53.561Z,24.15
2023-02-10T08:54:21.087Z,23.38
2023-02-10T08:56:48.282Z,22.48
2023-02-10T08:59:15.656Z,22.85
2023-02-10T09:01:42.866Z,21.50
2023-02-10T09:04:09.877Z,22.13
2023-02-10T09:06:41.521Z,21.25
2023-02-10T09:09:13.975Z,20.83
2023-02-10T09:11:42.924Z,21.60
2023-02-10T09:14:10.268Z,24.25
2023-02-10T09:16:37.394Z,20.90
2023-02-10T09:19:05.083Z,20.85
2023-02-10T09:21:45.676Z,20.70
2023-02-10T09:24:14.090Z,20.98
2023-02-10T09:26:41.040Z,19.90
2023-02-10T09:29:08.999Z,20.10
2023-02-10T09:31:36.765Z,21.00
2023-02-10T09:34:04.421Z,21.10
2023-02-10T09:36:31.765Z,19.20
2023-02-10T09:38:58.800Z,20.45
2023-02-10T09:41:45.720Z,21.38
2023-02-10T09:44:34.182Z,22.10
2023-02-10T09:47:34.700Z,19.30
2023-02-10T09:50:10.086Z,19.80
2023-02-10T09:52:56.317Z,19.42
2023-02-10T09:55:36.231Z,18.70
2023-02-10T09:58:12.487Z,19.58
2023-02-10T10:00:45.808Z,18.63
2023-02-10T10:03:26.832Z,18.52
2023-02-10T10:06:08.690Z,18.13
2023-02-10T10:09:08.996Z,17.88
2023-02-10T10:12:05.597Z,17.90
2023-02-10T10:14:39.484Z,18.08
2023-02-10T10:17:28.137Z,18.30
2023-02-10T10:20:06.823Z,17.92
2023-02-10T10:22:50.356Z,17.25
2023-02-10T10:25:54.464Z,15.75
2023-02-10T10:28:35.274Z,15.35
2023-02-10T10:31:15.010Z,15.05
2023-02-10T10:33:54.892Z,16.15
2023-02-10T10:36:34.013Z,15.57
2023-02-10T10:39:32.715Z,14.43
2023-02-10T10:42:05.916Z,15.13
2023-02-10T10:44:33.122Z,14.75
2023-02-10T10:47:16.390Z,15.60
2023-02-10T10:49:43.395Z,15.57
2023-02-10T10:52:32.996Z,13.75
2023-02-10T10:55:14.402Z,15.60
2023-02-10T10:57:41.655Z,12.90
2023-02-10T11:00:17.518Z,13.63
2023-02-10T11:03:03.714Z,13.18
2023-02-10T11:05:36.554Z,13.65
2023-02-10T11:08:07.118Z,14.23
2023-02-10T11:10:55.015Z,13.48
2023-02-10T11:13:28.672Z,14.10
2023-02-10T11:16:04.985Z,14.52
2023-02-10T11:18:32.492Z,12.75
2023-02-10T11:21:08.098Z,13.02
2023-02-10T11:23:51.814Z,12.73
2023-02-10T11:26:27.074Z,15.43
2023-02-10T11:28:55.647Z,13.35
2023-02-10T11:31:22.677Z,12.38
2023-02-10T11:34:21.606Z,13.65
2023-02-10T11:36:52.138Z,14.05
2023-02-10T11:39:44.257Z,12.60
2023-02-10T11:42:19.522Z,12.45
2023-02-10T11:45:17.339Z,15.10
2023-02-10T11:47:44.643Z,12.00
2023-02-10T11:50:26.147Z,11.90
2023-02-10T11:52:53.475Z,14.40
2023-02-10T11:55:25.770Z,14.43
2023-02-10T11:58:42.965Z,13.50
2023-02-10T12:01:21.557Z,14.10
2023-02-10T12:04:14.504Z,11.43
2023-02-10T12:07:39.275Z,12.60
2023-02-10T12:10:18.876Z,12.38
2023-02-10T12:12:56.322Z,11.88
2023-02-10T12:16:30.868Z,11.13
2023-02-10T12:19:03.638Z,11.52
2023-02-10T12:22:20.126Z,10.98
2023-02-10T12:25:24.267Z,10.40
2023-02-10T12:28:46.783Z,14.55
2023-02-10T12:32:13.726Z,11.90
2023-02-10T12:35:21.633Z,10.57
2023-02-10T12:38:03.755Z,11.13
2023-02-10T12:40:48.280Z,10.25
2023-02-10T12:43:36.276Z,10.30
2023-02-10T12:46:12.235Z,11.43
2023-02-10T12:49:00.932Z,10.38
2023-02-10T12:52:13.753Z,10.85
2023-02-10T12:54:52.443Z,9.98
2023-02-10T12:57:46.414Z,9.55
2023-02-10T13:00:29.054Z,9.48
2023-02-10T13:03:06.082Z,11.40
2023-02-10T13:06:16.466Z,9.80
2023-02-10T13:08:52.091Z,10.48
2023-02-10T13:11:36.427Z,10.32
2023-02-10T13:14:12.746Z,10.32
2023-02-10T13:16:39.943Z,9.77
2023-02-10T13:19:41.303Z,9.45
2023-02-10T13:22:32.498Z,9.25
2023-02-10T13:25:42.864Z,8.73
2023-02-10T13:28:49.615Z,10.38
2023-02-10T13:31:53.662Z,9.15
2023-02-10T13:34:24.785Z,7.88
2023-02-10T13:36:57.317Z,9.88
2023-02-10T13:39:29.664Z,7.75
2023-02-10T13:42:21.101Z,7.40
2023-02-10T13:45:00.319Z,6.90
2023-02-10T13:48:02.506Z,8.00
2023-02-10T13:50:53.927Z,7.55
2023-02-10T13:53:35.757Z,7.88
2023-02-10T13:56:20.813Z,8.90
2023-02-10T13:58:55.817Z,8.07
2023-02-10T14:01:50.121Z,7.25
2023-02-10T14:04:19.998Z,7.63
2023-02-10T14:06:52.699Z,7.47
2023-02-10T14:09:30.016Z,9.77
2023-02-10T14:12:00.455Z,9.15
2023-02-10T14:14:41.010Z,11.65
2023-02-10T14:17:25.160Z,12.57
2023-02-10T14:19:53.306Z,9.13
2023-02-10T14:22:39.349Z,7.93
2023-02-10T14:25:30.313Z,8.77
2023-02-10T14:27:57.912Z,7.45
2023-02-10T14:30:35.009Z,7.60
2023-02-10T14:33:02.120Z,7.68
2023-02-10T14:35:30.350Z,6.45
2023-02-10T14:37:59.900Z,7.60
2023-02-10T14:40:29.930Z,12.55
2023-02-10T14:43:00.654Z,7.28
2023-02-10T14:45:29.006Z,6.15
2023-02-10T14:47:59.311Z,6.18
2023-02-10T14:50:34.196Z,7.38
2023-02-10T14:53:04.252Z,6.63
2023-02-10T14:55:39.503Z,6.57
2023-02-10T14:58:11.593Z,6.30
2023-02-10T15:00:41.685Z,6.68
2023-02-10T15:03:13.744Z,8.35
2023-02-10T15:05:48.715Z,9.80
2023-02-10T15:08:43.526Z,11.43
2023-02-10T15:11:40.922Z,8.57
2023-02-10T15:14:17.617Z,7.60
2023-02-10T15:16:46.716Z,8.57
2023-02-10T15:19:17.231Z,8.48
2023-02-10T15:21:47.348Z,7.88
2023-02-10T15:24:34.837Z,8.05
2023-02-10T15:29:50.009Z,8.45
2023-02-10T15:32:23.141Z,7.47
2023-02-10T15:34:53.874Z,9.30
2023-02-10T15:37:25.233Z,7.85
2023-02-10T15:39:58.839Z,8.93
2023-02-10T15:42:33.792Z,13.15
2023-02-10T15:45:17.326Z,10.43
2023-02-10T15:48:00.142Z,9.95
2023-02-10T15:50:28.750Z,9.63
2023-02-10T15:52:55.842Z,9.90
2023-02-10T15:55:37.286Z,9.05
2023-02-10T16:00:37.902Z,9.75
2023-02-10T16:03:07.029Z,8.73
2023-02-10T16:08:33.075Z,9.38
2023-02-10T16:11:03.120Z,8.27
2023-02-10T16:13:30.333Z,8.25
2023-02-10T16:15:57.485Z,8.23
2023-02-10T16:18:27.481Z,9.15
2023-02-10T16:20:54.366Z,10.70
2023-02-10T16:23:21.698Z,12.63
2023-02-10T16:25:50.620Z,12.52
2023-02-10T16:28:19.867Z,11.30
2023-02-10T16:33:16.027Z,9.40
2023-02-10T16:35:43.249Z,11.10
2023-02-10T16:38:17.474Z,15.38
2023-02-10T16:40:45.601Z,10.70
2023-02-10T16:43:12.554Z,13.48
2023-02-10T16:45:39.477Z,11.25
2023-02-10T16:48:06.434Z,10.77
2023-02-10T16:50:41.819Z,12.70
2023-02-10T16:53:10.309Z,9.90
2023-02-10T16:55:39.745Z,10.63
2023-02-10T16:58:08.080Z,10.00
2023-02-10T17:00:35.191Z,10.50
2023-02-10T17:03:02.249Z,10.32
2023-02-10T17:05:30.524Z,11.20
2023-02-10T17:07:57.481Z,11.10
2023-02-10T17:10:28.766Z,10.65
2023-02-10T17:12:56.205Z,8.90
2023-02-10T17:15:24.006Z,9.23
2023-02-10T17:17:51.441Z,10.90
2023-02-10T17:20:32.034Z,9.23
2023-02-10T17:22:59.333Z,11.20
2023-02-10T17:25:26.343Z,11.40
2023-02-10T17:27:53.779Z,10.68
2023-02-10T17:30:24.400Z,13.38
2023-02-10T17:32:52.230Z,12.75
2023-02-10T17:35:22.175Z,13.30
2023-02-10T17:37:50.318Z,11.95
2023-02-10T17:40:25.358Z,12.90
2023-02-10T17:42:53.003Z,14.45
2023-02-10T17:45:19.997Z,13.57
2023-02-10T17:47:47.418Z,12.70
2023-02-10T17:50:16.615Z,11.82
2023-02-10T17:52:43.690Z,11.27
2023-02-10T17:55:21.636Z,12.07
2023-02-10T17:57:50.101Z,11.20
2023-02-10T18:00:18.012Z,12.02
2023-02-10T18:02:47.004Z,13.05
2023-02-10T18:05:13.870Z,12.05
2023-02-10T18:07:40.791Z,12.75
2023-02-10T18:10:08.294Z,15.15
2023-02-10T18:12:35.289Z,15.00
2023-02-10T18:15:02.218Z,14.20
2023-02-10T18:17:30.373Z,12.82
2023-02-10T18:19:57.278Z,13.10
2023-02-10T18:22:24.298Z,14.32
2023-02-10T18:24:51.144Z,14.48
2023-02-10T18:27:18.166Z,12.65
2023-02-10T18:29:45.518Z,14.25
2023-02-10T18:32:12.572Z,13.55
2023-02-10T18:34:39.965Z,15.10
2023-02-10T18:37:06.980Z,14.88
2023-02-10T18:39:33.950Z,15.63
2023-02-10T18:42:00.887Z,20.75
2023-02-10T18:44:28.007Z,15.27
2023-02-10T18:46:54.925Z,15.35
2023-02-10T18:49:21.823Z,14.75
2023-02-10T18:51:53.710Z,14.75
2023-02-10T18:54:23.752Z,14.73
2023-02-10T18:56:50.627Z,14.48
2023-02-10T18:59:18.940Z,14.60
2023-02-10T19:01:45.807Z,16.30
2023-02-10T19:04:12.760Z,18.02
2023-02-10T19:06:39.799Z,16.70
2023-02-10T19:09:06.769Z,17.50
2023-02-10T19:11:33.686Z,14.02
2023-02-10T19:14:01.047Z,15.57
2023-02-10T19:16:28.582Z,15.45
2023-02-10T19:18:55.539Z,17.45
2023-02-10T19:21:22.523Z,17.73
2023-02-10T19:23:49.954Z,15.68
2023-02-10T19:26:17.053Z,16.90
2023-02-10T19:28:44.457Z,25.00
2023-02-10T19:31:14.370Z,16.58
2023-02-10T19:33:49.438Z,16.20
2023-02-10T19:36:19.318Z,13.75
2023-02-10T19:38:46.240Z,14.65
2023-02-10T19:41:18.087Z,14.00
2023-02-10T19:43:46.634Z,14.38
2023-02-10T19:46:15.904Z,13.15
2023-02-10T19:51:16.832Z,12.77
2023-02-10T19:53:45.789Z,13.50
2023-02-10T19:56:13.343Z,12.65
2023-02-10T19:58:40.248Z,11.77
2023-02-10T20:01:17.242Z,13.02
2023-02-10T20:03:53.984Z,12.27
2023-02-10T20:06:26.042Z,13.50
2023-02-10T20:08:53.695Z,19.55
2023-02-10T20:11:21.240Z,15.00
2023-02-10T20:13:49.062Z,12.57
2023-02-10T20:16:16.709Z,14.38
2023-02-10T20:18:43.739Z,12.55
2023-02-10T20:21:11.330Z,12.18
2023-02-10T20:23:41.548Z,11.38
2023-02-10T20:26:11.758Z,11.80
2023-02-10T20:28:38.851Z,13.13
2023-02-10T20:31:06.683Z,12.40
2023-02-10T20:33:33.866Z,11.73
2023-02-10T20:36:06.084Z,12.18
2023-02-10T20:38:35.389Z,12.90
2023-02-10T20:41:05.212Z,12.05
2023-02-10T20:43:32.167Z,12.43
2023-02-10T20:45:59.310Z,13.02
2023-02-10T20:48:27.388Z,13.98
2023-02-10T20:51:07.605Z,12.77
2023-02-10T20:53:38.291Z,13.60
2023-02-10T20:56:06.554Z,13.57
2023-02-10T20:58:33.973Z,14.05
2023-02-10T21:01:04.402Z,14.07
2023-02-10T21:03:32.514Z,14.15
2023-02-10T21:06:26.047Z,13.07
2023-02-10T21:08:55.889Z,14.48
2023-02-10T21:11:27.455Z,13.88
2023-02-10T21:13:55.100Z,14.45
2023-02-10T21:16:23.338Z,14.35
2023-02-10T21:18:50.857Z,13.38
2023-02-10T21:21:19.407Z,16.73
2023-02-10T21:23:47.207Z,15.00
2023-02-10T21:26:14.837Z,13.80
2023-02-10T21:28:41.848Z,15.40
2023-02-10T21:31:18.488Z,15.80
2023-02-10T21:33:45.474Z,14.80
2023-02-10T21:36:26.162Z,14.52
2023-02-10T21:38:56.413Z,15.15
2023-02-10T21:41:44.550Z,14.35
2023-02-10T21:44:21.867Z,14.57
2023-02-10T21:46:53.527Z,14.57
2023-02-10T21:49:22.697Z,14.70
2023-02-10T21:51:50.608Z,13.85
2023-02-10T21:54:17.919Z,15.13
2023-02-10T21:56:45.145Z,16.17
2023-02-10T21:59:13.852Z,15.63
2023-02-10T22:01:41.495Z,16.65
2023-02-10T22:04:09.498Z,15.73
2023-02-10T22:06:40.016Z,15.30
2023-02-10T22:09:09.590Z,14.27
2023-02-10T22:11:36.515Z,15.80
2023-02-10T22:14:03.768Z,14.82
2023-02-10T22:16:30.999Z,16.08
2023-02-10T22:18:58.093Z,16.30
2023-02-10T22:21:29.251Z,18.58
2023-02-10T22:23:57.121Z,16.00
2023-02-10T22:26:27.356Z,17.48
2023-02-10T22:28:55.355Z,25.02
2023-02-10T22:31:26.312Z,13.57
2023-02-10T22:33:57.217Z,18.95
2023-02-10T22:36:26.156Z,18.08
2023-02-10T22:38:53.796Z,17.67
2023-02-10T22:41:26.962Z,17.48
2023-02-10T22:43:56.433Z,15.25
2023-02-10T22:46:23.351Z,17.05
2023-02-10T22:48:52.041Z,18.08
2023-02-10T22:51:24.008Z,18.17
2023-02-10T22:54:08.648Z,17.30
2023-02-10T22:56:38.480Z,18.20
2023-02-10T22:59:06.493Z,17.38
2023-02-10T23:01:42.888Z,18.50
2023-02-10T23:04:13.960Z,18.45
2023-02-10T23:06:41.128Z,20.30
2023-02-10T23:09:11.396Z,18.00
2023-02-10T23:11:45.406Z,19.45
2023-02-10T23:14:12.622Z,18.48
2023-02-10T23:16:39.788Z,17.58
2023-02-10T23:19:07.243Z,18.42
2023-02-10T23:21:34.382Z,20.25
2023-02-10T23:24:01.371Z,18.65
2023-02-10T23:26:34.064Z,19.65
2023-02-10T23:29:11.821Z,19.55
2023-02-10T23:31:39.044Z,19.58
2023-02-10T23:34:06.027Z,20.33
2023-02-10T23:36:33.048Z,20.27
2023-02-10T23:39:02.129Z,19.23
2023-02-10T23:43:55.886Z,19.15
2023-02-10T23:46:23.208Z,18.50
2023-02-10T23:48:50.125Z,18.77
2023-02-10T23:51:20.219Z,19.75
2023-02-10T23:53:49.190Z,21.83
2023-02-10T23:56:20.414Z,20.95
2023-02-10T23:58:51.575Z,20.50
